メインページ
METAR-TAF:

METAR-TAF

空港 :

ジュノー国際空港

ジュノー, アラスカ州, アメリカ合衆国

緯度: 58-21-17N, 経度: 134-34-34W, 海抜: 6m

現時点の気象観測

当レポートは57分前の08:53(UTC)に作成
の風 5kt
気温 12°C
湿度 71%
気圧 1010 hPa
視程: 16.1km
高度6000ftの雲は散在している
高度11000ftの千切れ雲あり
高度20000ftの千切れ雲あり

METAR: PAJN 200853Z 08005KT 10SM SCT060 BKN110 BKN200 12/07 A2982 RMK AO2 SLP097 T01220067 401890039 55002

時間: 01:50 (09:50 UTC)

予報

当レポートは4時間30分前の05:20(UTC)に作成
予報は20日の 06時(UTC)から 21日の 06時(UTC)まで有効
の風 4kt
視程: 10km
高度8000ftの雲は散在している
高度25000ftの千切れ雲あり
20日の 1500時(UTC)から
の風 4kt
視程: 10km
高度3000ftの雲は散在している
高度5000ftの千切れ雲あり
高度7000ftの曇り
小霧雨
20日の 1800時(UTC)から
東/南東の風 11kt
視程: 10km
高度1500ftの千切れ雲あり
高度2500ftの曇り
小雨

TAF: PAJN 200520Z 2006/2106 08004KT P6SM SCT080 BKN250 FM201500 08004KT P6SM -DZ SCT030 BKN050 OVC070 FM201800 11011KT P6SM -RA BKN015 OVC025

4,000以上の空港の気象観測と天気予報(METAR報とTAF報)

利用可能な観測所は地図上に黄色い丸と赤い丸で示す。

丸の上にカーソルを重ねると観測所名を参照できる。

次にクリックすると気象観測と天気予報を参照できる。

マップの切り替え:黒色「×」印の緑ボタンをクリックして拡大、「-」印の緑ボタンをクリックして縮小、緑色の三角印をクリックして隣りの地図に切り替え


METAR-TAF: